sensor_id;sensor_type;location;lat;lon;timestamp;temperature;humidity
20574;DHT22;10445;50.216;7.912;2023-04-24T00:02:22;9.20;99.90
20574;DHT22;10445;50.216;7.912;2023-04-24T00:05:12;9.20;99.90
20574;DHT22;10445;50.216;7.912;2023-04-24T00:08:01;9.20;99.90
20574;DHT22;10445;50.216;7.912;2023-04-24T00:10:51;9.20;99.90
20574;DHT22;10445;50.216;7.912;2023-04-24T00:13:40;9.20;99.90
20574;DHT22;10445;50.216;7.912;2023-04-24T00:16:29;9.10;99.90
20574;DHT22;10445;50.216;7.912;2023-04-24T00:19:18;9.20;99.90
20574;DHT22;10445;50.216;7.912;2023-04-24T00:22:08;9.10;99.90
20574;DHT22;10445;50.216;7.912;2023-04-24T00:24:58;9.10;99.90
20574;DHT22;10445;50.216;7.912;2023-04-24T00:27:48;9.00;99.90
20574;DHT22;10445;50.216;7.912;2023-04-24T00:30:37;8.90;99.90
20574;DHT22;10445;50.216;7.912;2023-04-24T00:33:26;8.90;99.90
20574;DHT22;10445;50.216;7.912;2023-04-24T00:36:15;8.90;99.90
20574;DHT22;10445;50.216;7.912;2023-04-24T00:39:03;8.90;99.90
20574;DHT22;10445;50.216;7.912;2023-04-24T00:41:52;8.90;99.90
20574;DHT22;10445;50.216;7.912;2023-04-24T00:44:43;8.90;99.90
20574;DHT22;10445;50.216;7.912;2023-04-24T00:47:33;8.90;99.90
20574;DHT22;10445;50.216;7.912;2023-04-24T00:50:22;8.90;99.90
20574;DHT22;10445;50.216;7.912;2023-04-24T00:53:11;8.90;99.90
20574;DHT22;10445;50.216;7.912;2023-04-24T00:56:00;8.90;99.90
20574;DHT22;10445;50.216;7.912;2023-04-24T00:58:49;8.90;99.90
20574;DHT22;10445;50.216;7.912;2023-04-24T01:01:40;8.90;99.90
20574;DHT22;10445;50.216;7.912;2023-04-24T01:04:30;8.90;99.90
20574;DHT22;10445;50.216;7.912;2023-04-24T01:07:19;8.90;99.90
20574;DHT22;10445;50.216;7.912;2023-04-24T01:10:09;8.90;99.90
20574;DHT22;10445;50.216;7.912;2023-04-24T01:12:58;8.80;99.90
20574;DHT22;10445;50.216;7.912;2023-04-24T01:15:47;8.80;99.90
20574;DHT22;10445;50.216;7.912;2023-04-24T01:18:38;8.80;99.90
20574;DHT22;10445;50.216;7.912;2023-04-24T01:21:27;8.70;99.90
20574;DHT22;10445;50.216;7.912;2023-04-24T01:24:20;8.70;99.90
20574;DHT22;10445;50.216;7.912;2023-04-24T01:27:10;8.70;99.90
20574;DHT22;10445;50.216;7.912;2023-04-24T01:29:59;8.70;99.90
20574;DHT22;10445;50.216;7.912;2023-04-24T01:32:48;8.70;99.90
20574;DHT22;10445;50.216;7.912;2023-04-24T01:35:37;8.70;99.90
20574;DHT22;10445;50.216;7.912;2023-04-24T01:38:26;8.60;99.90
20574;DHT22;10445;50.216;7.912;2023-04-24T01:41:16;8.60;99.90
20574;DHT22;10445;50.216;7.912;2023-04-24T01:44:05;8.60;99.90
20574;DHT22;10445;50.216;7.912;2023-04-24T01:46:55;8.60;99.90
20574;DHT22;10445;50.216;7.912;2023-04-24T01:49:46;8.50;99.90
20574;DHT22;10445;50.216;7.912;2023-04-24T01:52:36;8.50;99.90
20574;DHT22;10445;50.216;7.912;2023-04-24T01:55:25;8.60;99.90
20574;DHT22;10445;50.216;7.912;2023-04-24T01:58:15;8.50;99.90
20574;DHT22;10445;50.216;7.912;2023-04-24T02:01:06;8.50;99.90
20574;DHT22;10445;50.216;7.912;2023-04-24T02:03:55;8.50;99.90
20574;DHT22;10445;50.216;7.912;2023-04-24T02:06:44;8.40;99.90
20574;DHT22;10445;50.216;7.912;2023-04-24T02:09:33;8.40;99.90
20574;DHT22;10445;50.216;7.912;2023-04-24T02:12:21;8.40;99.90
20574;DHT22;10445;50.216;7.912;2023-04-24T02:15:12;8.40;99.90
20574;DHT22;10445;50.216;7.912;2023-04-24T02:18:00;8.30;99.90
20574;DHT22;10445;50.216;7.912;2023-04-24T02:20:49;8.30;99.90
20574;DHT22;10445;50.216;7.912;2023-04-24T02:23:38;8.30;99.90
20574;DHT22;10445;50.216;7.912;2023-04-24T02:26:27;8.20;99.90
20574;DHT22;10445;50.216;7.912;2023-04-24T02:29:16;8.20;99.90
20574;DHT22;10445;50.216;7.912;2023-04-24T02:32:06;8.20;99.90
20574;DHT22;10445;50.216;7.912;2023-04-24T02:34:58;8.20;99.90
20574;DHT22;10445;50.216;7.912;2023-04-24T02:37:47;8.10;99.90
20574;DHT22;10445;50.216;7.912;2023-04-24T02:40:36;8.10;99.90
20574;DHT22;10445;50.216;7.912;2023-04-24T02:43:25;8.10;99.90
20574;DHT22;10445;50.216;7.912;2023-04-24T02:46:13;8.10;99.90
20574;DHT22;10445;50.216;7.912;2023-04-24T02:49:04;8.10;99.90
20574;DHT22;10445;50.216;7.912;2023-04-24T02:51:52;8.00;99.90
20574;DHT22;10445;50.216;7.912;2023-04-24T02:54:41;8.00;99.90
20574;DHT22;10445;50.216;7.912;2023-04-24T02:57:30;8.00;99.90
20574;DHT22;10445;50.216;7.912;2023-04-24T03:00:19;7.90;99.90
20574;DHT22;10445;50.216;7.912;2023-04-24T03:03:07;8.00;99.90
20574;DHT22;10445;50.216;7.912;2023-04-24T03:05:58;7.90;99.90
20574;DHT22;10445;50.216;7.912;2023-04-24T03:08:47;7.90;99.90
20574;DHT22;10445;50.216;7.912;2023-04-24T03:11:35;7.80;99.90
20574;DHT22;10445;50.216;7.912;2023-04-24T03:14:24;7.80;99.90
20574;DHT22;10445;50.216;7.912;2023-04-24T03:17:13;7.60;99.90
20574;DHT22;10445;50.216;7.912;2023-04-24T03:20:02;7.50;99.90
20574;DHT22;10445;50.216;7.912;2023-04-24T03:22:53;7.40;99.90
20574;DHT22;10445;50.216;7.912;2023-04-24T03:25:43;7.30;99.90
20574;DHT22;10445;50.216;7.912;2023-04-24T03:28:32;7.20;99.90
20574;DHT22;10445;50.216;7.912;2023-04-24T03:31:21;7.10;99.90
20574;DHT22;10445;50.216;7.912;2023-04-24T03:34:10;7.00;99.90
20574;DHT22;10445;50.216;7.912;2023-04-24T03:36:58;7.00;99.90
20574;DHT22;10445;50.216;7.912;2023-04-24T03:39:48;6.90;99.10
20574;DHT22;10445;50.216;7.912;2023-04-24T03:42:37;6.80;98.30
20574;DHT22;10445;50.216;7.912;2023-04-24T03:45:26;6.70;99.10
20574;DHT22;10445;50.216;7.912;2023-04-24T03:48:15;6.70;99.90
20574;DHT22;10445;50.216;7.912;2023-04-24T03:51:03;6.60;99.90
20574;DHT22;10445;50.216;7.912;2023-04-24T03:53:52;6.60;99.90
20574;DHT22;10445;50.216;7.912;2023-04-24T03:56:42;6.60;99.90
20574;DHT22;10445;50.216;7.912;2023-04-24T03:59:31;6.60;99.90
20574;DHT22;10445;50.216;7.912;2023-04-24T04:02:20;6.50;99.90
20574;DHT22;10445;50.216;7.912;2023-04-24T04:05:09;6.50;99.90
20574;DHT22;10445;50.216;7.912;2023-04-24T04:07:57;6.50;99.90
20574;DHT22;10445;50.216;7.912;2023-04-24T04:10:46;6.50;99.90
20574;DHT22;10445;50.216;7.912;2023-04-24T04:13:36;6.40;99.90
20574;DHT22;10445;50.216;7.912;2023-04-24T04:16:25;6.40;99.90
20574;DHT22;10445;50.216;7.912;2023-04-24T04:19:14;6.40;99.90
20574;DHT22;10445;50.216;7.912;2023-04-24T04:22:02;6.30;99.90
20574;DHT22;10445;50.216;7.912;2023-04-24T04:24:51;6.30;99.90
20574;DHT22;10445;50.216;7.912;2023-04-24T04:27:40;6.20;99.90
20574;DHT22;10445;50.216;7.912;2023-04-24T04:30:30;6.20;99.90
20574;DHT22;10445;50.216;7.912;2023-04-24T04:33:19;6.20;99.90
20574;DHT22;10445;50.216;7.912;2023-04-24T04:36:08;6.20;98.80
20574;DHT22;10445;50.216;7.912;2023-04-24T04:38:57;6.10;99.60
20574;DHT22;10445;50.216;7.912;2023-04-24T04:41:46;6.20;99.80
20574;DHT22;10445;50.216;7.912;2023-04-24T04:44:36;6.10;99.40
20574;DHT22;10445;50.216;7.912;2023-04-24T04:47:27;6.20;98.90
20574;DHT22;10445;50.216;7.912;2023-04-24T04:50:19;6.10;98.90
20574;DHT22;10445;50.216;7.912;2023-04-24T04:53:08;6.10;98.30
20574;DHT22;10445;50.216;7.912;2023-04-24T04:55:57;6.00;97.40
20574;DHT22;10445;50.216;7.912;2023-04-24T04:58:46;6.00;97.30
20574;DHT22;10445;50.216;7.912;2023-04-24T05:01:35;6.00;98.00
20574;DHT22;10445;50.216;7.912;2023-04-24T05:04:25;6.00;99.20
20574;DHT22;10445;50.216;7.912;2023-04-24T05:07:15;6.00;98.80
20574;DHT22;10445;50.216;7.912;2023-04-24T05:10:04;6.10;97.90
20574;DHT22;10445;50.216;7.912;2023-04-24T05:12:53;6.10;97.20
20574;DHT22;10445;50.216;7.912;2023-04-24T05:15:42;6.20;97.00
20574;DHT22;10445;50.216;7.912;2023-04-24T05:18:30;6.40;97.80
20574;DHT22;10445;50.216;7.912;2023-04-24T05:21:21;6.60;95.70
20574;DHT22;10445;50.216;7.912;2023-04-24T05:24:09;6.70;94.00
20574;DHT22;10445;50.216;7.912;2023-04-24T05:26:58;6.70;93.40
20574;DHT22;10445;50.216;7.912;2023-04-24T05:29:47;6.90;90.70
20574;DHT22;10445;50.216;7.912;2023-04-24T05:32:35;6.80;90.10
20574;DHT22;10445;50.216;7.912;2023-04-24T05:35:24;6.90;89.70
20574;DHT22;10445;50.216;7.912;2023-04-24T05:38:14;7.00;89.90
20574;DHT22;10445;50.216;7.912;2023-04-24T05:41:05;7.00;88.90
20574;DHT22;10445;50.216;7.912;2023-04-24T05:43:53;7.20;90.40
20574;DHT22;10445;50.216;7.912;2023-04-24T05:46:42;7.30;90.50
20574;DHT22;10445;50.216;7.912;2023-04-24T05:49:31;7.40;85.80
20574;DHT22;10445;50.216;7.912;2023-04-24T05:52:20;7.50;86.70
20574;DHT22;10445;50.216;7.912;2023-04-24T05:55:10;7.60;84.10
20574;DHT22;10445;50.216;7.912;2023-04-24T05:57:59;7.70;83.40
20574;DHT22;10445;50.216;7.912;2023-04-24T06:00:48;7.80;80.90
20574;DHT22;10445;50.216;7.912;2023-04-24T06:03:38;7.90;85.50
20574;DHT22;10445;50.216;7.912;2023-04-24T06:06:27;8.10;86.30
20574;DHT22;10445;50.216;7.912;2023-04-24T06:09:16;8.30;78.60
20574;DHT22;10445;50.216;7.912;2023-04-24T06:12:06;8.50;72.60
20574;DHT22;10445;50.216;7.912;2023-04-24T06:14:56;8.70;78.60
20574;DHT22;10445;50.216;7.912;2023-04-24T06:17:44;9.10;74.10
20574;DHT22;10445;50.216;7.912;2023-04-24T06:20:33;9.50;68.10
20574;DHT22;10445;50.216;7.912;2023-04-24T06:23:22;9.90;64.10
20574;DHT22;10445;50.216;7.912;2023-04-24T06:26:11;10.00;56.90
20574;DHT22;10445;50.216;7.912;2023-04-24T06:29:01;10.40;55.70
20574;DHT22;10445;50.216;7.912;2023-04-24T06:31:50;10.70;49.20
20574;DHT22;10445;50.216;7.912;2023-04-24T06:34:38;10.50;44.80
20574;DHT22;10445;50.216;7.912;2023-04-24T06:37:27;10.10;49.60
20574;DHT22;10445;50.216;7.912;2023-04-24T06:40:17;9.60;55.40
20574;DHT22;10445;50.216;7.912;2023-04-24T06:43:07;9.50;57.40
20574;DHT22;10445;50.216;7.912;2023-04-24T06:45:59;9.90;58.80
20574;DHT22;10445;50.216;7.912;2023-04-24T06:48:49;10.10;52.00
20574;DHT22;10445;50.216;7.912;2023-04-24T06:51:38;9.80;55.20
20574;DHT22;10445;50.216;7.912;2023-04-24T06:54:27;9.80;60.50
20574;DHT22;10445;50.216;7.912;2023-04-24T06:57:17;10.10;55.50
20574;DHT22;10445;50.216;7.912;2023-04-24T07:00:06;10.40;50.50
20574;DHT22;10445;50.216;7.912;2023-04-24T07:02:58;10.70;49.40
20574;DHT22;10445;50.216;7.912;2023-04-24T07:05:47;10.80;36.60
20574;DHT22;10445;50.216;7.912;2023-04-24T07:08:36;10.90;35.20
20574;DHT22;10445;50.216;7.912;2023-04-24T07:11:25;10.90;35.00
20574;DHT22;10445;50.216;7.912;2023-04-24T07:14:16;11.10;37.10
20574;DHT22;10445;50.216;7.912;2023-04-24T07:17:05;11.10;35.60
20574;DHT22;10445;50.216;7.912;2023-04-24T07:19:55;10.60;38.00
20574;DHT22;10445;50.216;7.912;2023-04-24T07:22:44;10.30;38.30
20574;DHT22;10445;50.216;7.912;2023-04-24T07:25:33;10.10;44.30
20574;DHT22;10445;50.216;7.912;2023-04-24T07:28:21;10.20;51.50
20574;DHT22;10445;50.216;7.912;2023-04-24T07:31:11;10.50;47.20
20574;DHT22;10445;50.216;7.912;2023-04-24T07:34:00;10.60;43.00
20574;DHT22;10445;50.216;7.912;2023-04-24T07:36:50;11.00;45.30
20574;DHT22;10445;50.216;7.912;2023-04-24T07:39:38;11.40;34.50
20574;DHT22;10445;50.216;7.912;2023-04-24T07:42:29;10.90;28.70
20574;DHT22;10445;50.216;7.912;2023-04-24T07:45:18;10.30;38.50
20574;DHT22;10445;50.216;7.912;2023-04-24T07:48:08;9.90;42.90
20574;DHT22;10445;50.216;7.912;2023-04-24T07:50:57;9.50;43.80
20574;DHT22;10445;50.216;7.912;2023-04-24T07:53:50;9.20;45.10
20574;DHT22;10445;50.216;7.912;2023-04-24T07:56:38;9.10;54.10
20574;DHT22;10445;50.216;7.912;2023-04-24T07:59:28;9.10;55.30
20574;DHT22;10445;50.216;7.912;2023-04-24T08:02:17;9.00;53.80
20574;DHT22;10445;50.216;7.912;2023-04-24T08:05:06;8.80;55.80
20574;DHT22;10445;50.216;7.912;2023-04-24T08:07:55;8.80;52.20
20574;DHT22;10445;50.216;7.912;2023-04-24T08:10:46;8.60;56.20
20574;DHT22;10445;50.216;7.912;2023-04-24T08:13:35;8.60;55.70
20574;DHT22;10445;50.216;7.912;2023-04-24T08:16:23;8.50;55.90
20574;DHT22;10445;50.216;7.912;2023-04-24T08:19:12;8.50;56.90
20574;DHT22;10445;50.216;7.912;2023-04-24T08:22:01;8.50;58.30
20574;DHT22;10445;50.216;7.912;2023-04-24T08:24:51;8.40;60.50
20574;DHT22;10445;50.216;7.912;2023-04-24T08:27:42;8.40;58.00
20574;DHT22;10445;50.216;7.912;2023-04-24T08:30:30;8.40;58.30
20574;DHT22;10445;50.216;7.912;2023-04-24T08:33:19;8.50;56.90
20574;DHT22;10445;50.216;7.912;2023-04-24T08:36:08;8.50;59.50
20574;DHT22;10445;50.216;7.912;2023-04-24T08:38:57;8.50;60.20
20574;DHT22;10445;50.216;7.912;2023-04-24T08:41:45;8.60;62.40
20574;DHT22;10445;50.216;7.912;2023-04-24T08:44:38;8.60;59.10
20574;DHT22;10445;50.216;7.912;2023-04-24T08:47:27;8.70;59.60
20574;DHT22;10445;50.216;7.912;2023-04-24T08:50:17;8.90;60.60
20574;DHT22;10445;50.216;7.912;2023-04-24T08:53:07;9.00;59.50
20574;DHT22;10445;50.216;7.912;2023-04-24T08:55:58;8.90;58.20
20574;DHT22;10445;50.216;7.912;2023-04-24T08:58:50;8.70;57.60
20574;DHT22;10445;50.216;7.912;2023-04-24T09:01:41;8.70;63.00
20574;DHT22;10445;50.216;7.912;2023-04-24T09:04:33;8.60;58.10
20574;DHT22;10445;50.216;7.912;2023-04-24T09:07:24;8.50;60.30
20574;DHT22;10445;50.216;7.912;2023-04-24T09:10:15;8.50;64.00
20574;DHT22;10445;50.216;7.912;2023-04-24T09:13:05;8.60;66.10
20574;DHT22;10445;50.216;7.912;2023-04-24T09:15:56;8.50;64.70
20574;DHT22;10445;50.216;7.912;2023-04-24T09:18:48;8.40;66.80
20574;DHT22;10445;50.216;7.912;2023-04-24T09:25:45;8.30;73.00
20574;DHT22;10445;50.216;7.912;2023-04-24T09:28:36;8.20;77.10
20574;DHT22;10445;50.216;7.912;2023-04-24T09:31:27;8.20;81.20
20574;DHT22;10445;50.216;7.912;2023-04-24T09:34:21;8.10;84.60
20574;DHT22;10445;50.216;7.912;2023-04-24T09:37:11;8.10;85.90
20574;DHT22;10445;50.216;7.912;2023-04-24T09:40:15;8.20;88.50
20574;DHT22;10445;50.216;7.912;2023-04-24T09:43:10;8.30;88.20
20574;DHT22;10445;50.216;7.912;2023-04-24T09:46:04;8.40;88.00
20574;DHT22;10445;50.216;7.912;2023-04-24T09:48:54;8.50;87.30
20574;DHT22;10445;50.216;7.912;2023-04-24T09:51:44;8.80;80.60
20574;DHT22;10445;50.216;7.912;2023-04-24T09:54:33;8.90;80.00
20574;DHT22;10445;50.216;7.912;2023-04-24T09:57:24;8.90;74.90
20574;DHT22;10445;50.216;7.912;2023-04-24T10:00:14;9.10;76.70
20574;DHT22;10445;50.216;7.912;2023-04-24T10:03:06;9.30;77.00
20574;DHT22;10445;50.216;7.912;2023-04-24T10:05:58;9.50;75.30
20574;DHT22;10445;50.216;7.912;2023-04-24T10:08:49;9.40;73.70
20574;DHT22;10445;50.216;7.912;2023-04-24T10:11:42;9.40;75.60
20574;DHT22;10445;50.216;7.912;2023-04-24T10:17:38;9.50;73.40
20574;DHT22;10445;50.216;7.912;2023-04-24T10:20:29;9.60;71.40
20574;DHT22;10445;50.216;7.912;2023-04-24T10:23:19;9.70;67.90
20574;DHT22;10445;50.216;7.912;2023-04-24T10:26:10;9.90;69.60
20574;DHT22;10445;50.216;7.912;2023-04-24T10:29:05;10.00;61.80
20574;DHT22;10445;50.216;7.912;2023-04-24T10:31:57;10.00;58.70
20574;DHT22;10445;50.216;7.912;2023-04-24T10:34:45;10.00;58.20
20574;DHT22;10445;50.216;7.912;2023-04-24T10:37:37;9.80;55.80
20574;DHT22;10445;50.216;7.912;2023-04-24T10:40:29;9.90;53.40
20574;DHT22;10445;50.216;7.912;2023-04-24T10:43:20;9.80;47.20
20574;DHT22;10445;50.216;7.912;2023-04-24T10:46:09;9.80;47.30
20574;DHT22;10445;50.216;7.912;2023-04-24T10:48:58;9.70;47.20
20574;DHT22;10445;50.216;7.912;2023-04-24T10:51:53;9.80;50.80
20574;DHT22;10445;50.216;7.912;2023-04-24T10:54:48;9.90;49.00
20574;DHT22;10445;50.216;7.912;2023-04-24T10:57:38;9.70;47.00
20574;DHT22;10445;50.216;7.912;2023-04-24T11:00:28;9.30;59.90
20574;DHT22;10445;50.216;7.912;2023-04-24T11:03:25;9.10;68.80
20574;DHT22;10445;50.216;7.912;2023-04-24T11:06:15;8.90;74.40
20574;DHT22;10445;50.216;7.912;2023-04-24T11:09:04;8.60;73.50
20574;DHT22;10445;50.216;7.912;2023-04-24T11:12:03;8.60;75.30
20574;DHT22;10445;50.216;7.912;2023-04-24T11:15:01;8.60;76.40
20574;DHT22;10445;50.216;7.912;2023-04-24T11:17:56;8.60;77.60
20574;DHT22;10445;50.216;7.912;2023-04-24T11:20:46;8.50;73.60
20574;DHT22;10445;50.216;7.912;2023-04-24T11:23:36;8.40;76.60
20574;DHT22;10445;50.216;7.912;2023-04-24T11:26:25;8.40;78.90
20574;DHT22;10445;50.216;7.912;2023-04-24T11:29:20;8.50;79.10
20574;DHT22;10445;50.216;7.912;2023-04-24T11:32:23;8.60;79.30
20574;DHT22;10445;50.216;7.912;2023-04-24T11:35:18;8.70;72.20
20574;DHT22;10445;50.216;7.912;2023-04-24T11:38:22;8.70;66.90
20574;DHT22;10445;50.216;7.912;2023-04-24T11:41:18;8.80;68.20
20574;DHT22;10445;50.216;7.912;2023-04-24T11:44:09;8.70;66.40
20574;DHT22;10445;50.216;7.912;2023-04-24T11:46:58;8.60;60.60
20574;DHT22;10445;50.216;7.912;2023-04-24T11:49:50;8.60;59.90
20574;DHT22;10445;50.216;7.912;2023-04-24T11:52:42;8.60;63.90
20574;DHT22;10445;50.216;7.912;2023-04-24T11:55:31;8.90;67.80
20574;DHT22;10445;50.216;7.912;2023-04-24T11:58:21;8.80;59.00
20574;DHT22;10445;50.216;7.912;2023-04-24T12:01:10;8.70;59.80
20574;DHT22;10445;50.216;7.912;2023-04-24T12:04:00;8.70;64.70
20574;DHT22;10445;50.216;7.912;2023-04-24T12:07:01;8.70;63.90
20574;DHT22;10445;50.216;7.912;2023-04-24T12:09:57;8.80;63.70
20574;DHT22;10445;50.216;7.912;2023-04-24T12:12:47;8.90;63.00
20574;DHT22;10445;50.216;7.912;2023-04-24T12:15:40;9.00;63.60
20574;DHT22;10445;50.216;7.912;2023-04-24T12:18:29;9.10;61.50
20574;DHT22;10445;50.216;7.912;2023-04-24T12:21:19;9.30;60.50
20574;DHT22;10445;50.216;7.912;2023-04-24T12:24:09;9.50;53.70
20574;DHT22;10445;50.216;7.912;2023-04-24T12:27:00;9.90;49.10
20574;DHT22;10445;50.216;7.912;2023-04-24T12:29:55;10.10;46.30
20574;DHT22;10445;50.216;7.912;2023-04-24T12:32:46;10.00;42.80
20574;DHT22;10445;50.216;7.912;2023-04-24T12:35:35;9.80;49.20
20574;DHT22;10445;50.216;7.912;2023-04-24T12:38:27;9.50;61.40
20574;DHT22;10445;50.216;7.912;2023-04-24T12:41:16;8.80;64.50
20574;DHT22;10445;50.216;7.912;2023-04-24T12:44:10;8.70;67.70
20574;DHT22;10445;50.216;7.912;2023-04-24T12:47:00;8.90;74.30
20574;DHT22;10445;50.216;7.912;2023-04-24T12:49:49;9.10;66.80
20574;DHT22;10445;50.216;7.912;2023-04-24T12:52:39;9.40;63.80
20574;DHT22;10445;50.216;7.912;2023-04-24T12:55:28;9.60;61.90
20574;DHT22;10445;50.216;7.912;2023-04-24T12:58:17;10.10;57.70
20574;DHT22;10445;50.216;7.912;2023-04-24T13:01:08;10.90;48.70
20574;DHT22;10445;50.216;7.912;2023-04-24T13:03:57;12.30;42.90
20574;DHT22;10445;50.216;7.912;2023-04-24T13:06:45;12.70;25.00
20574;DHT22;10445;50.216;7.912;2023-04-24T13:10:05;12.20;29.00
20574;DHT22;10445;50.216;7.912;2023-04-24T13:13:17;12.80;16.80
20574;DHT22;10445;50.216;7.912;2023-04-24T13:16:08;12.80;18.20
20574;DHT22;10445;50.216;7.912;2023-04-24T13:18:56;12.00;24.30
20574;DHT22;10445;50.216;7.912;2023-04-24T13:21:45;11.30;31.90
20574;DHT22;10445;50.216;7.912;2023-04-24T13:24:34;11.20;38.70
20574;DHT22;10445;50.216;7.912;2023-04-24T13:27:26;12.10;35.60
20574;DHT22;10445;50.216;7.912;2023-04-24T13:30:14;13.10;21.10
20574;DHT22;10445;50.216;7.912;2023-04-24T13:33:04;12.80;20.70
20574;DHT22;10445;50.216;7.912;2023-04-24T13:35:53;12.10;24.30
20574;DHT22;10445;50.216;7.912;2023-04-24T13:38:42;11.50;32.50
20574;DHT22;10445;50.216;7.912;2023-04-24T13:41:32;10.90;32.70
20574;DHT22;10445;50.216;7.912;2023-04-24T13:44:22;10.60;32.40
20574;DHT22;10445;50.216;7.912;2023-04-24T13:47:11;10.40;34.80
20574;DHT22;10445;50.216;7.912;2023-04-24T13:50:01;10.40;34.50
20574;DHT22;10445;50.216;7.912;2023-04-24T13:52:50;10.50;30.10
20574;DHT22;10445;50.216;7.912;2023-04-24T13:55:39;10.50;29.90
20574;DHT22;10445;50.216;7.912;2023-04-24T13:58:28;10.50;25.40
20574;DHT22;10445;50.216;7.912;2023-04-24T14:01:17;10.40;24.70
20574;DHT22;10445;50.216;7.912;2023-04-24T14:04:05;10.50;20.20
20574;DHT22;10445;50.216;7.912;2023-04-24T14:06:56;10.70;11.30
20574;DHT22;10445;50.216;7.912;2023-04-24T14:09:44;10.70;7.30
20574;DHT22;10445;50.216;7.912;2023-04-24T14:12:33;10.70;10.60
20574;DHT22;10445;50.216;7.912;2023-04-24T14:15:22;10.60;11.90
20574;DHT22;10445;50.216;7.912;2023-04-24T14:18:11;10.50;12.40
20574;DHT22;10445;50.216;7.912;2023-04-24T14:20:59;10.40;16.30
20574;DHT22;10445;50.216;7.912;2023-04-24T14:23:50;10.40;18.60
20574;DHT22;10445;50.216;7.912;2023-04-24T14:26:39;10.40;15.90
20574;DHT22;10445;50.216;7.912;2023-04-24T14:29:27;10.50;16.30
20574;DHT22;10445;50.216;7.912;2023-04-24T14:32:16;10.50;13.20
20574;DHT22;10445;50.216;7.912;2023-04-24T14:35:06;10.50;17.00
20574;DHT22;10445;50.216;7.912;2023-04-24T14:37:55;10.40;15.30
20574;DHT22;10445;50.216;7.912;2023-04-24T14:40:45;10.10;20.50
20574;DHT22;10445;50.216;7.912;2023-04-24T14:43:36;9.80;22.60
20574;DHT22;10445;50.216;7.912;2023-04-24T14:46:25;9.60;24.80
20574;DHT22;10445;50.216;7.912;2023-04-24T14:49:14;9.60;27.00
20574;DHT22;10445;50.216;7.912;2023-04-24T14:52:03;9.60;23.90
20574;DHT22;10445;50.216;7.912;2023-04-24T14:54:51;9.60;24.30
20574;DHT22;10445;50.216;7.912;2023-04-24T14:57:41;9.60;23.60
20574;DHT22;10445;50.216;7.912;2023-04-24T15:00:30;9.70;23.00
20574;DHT22;10445;50.216;7.912;2023-04-24T15:03:19;9.60;21.10
20574;DHT22;10445;50.216;7.912;2023-04-24T15:06:09;9.70;26.00
20574;DHT22;10445;50.216;7.912;2023-04-24T15:08:58;9.90;24.90
20574;DHT22;10445;50.216;7.912;2023-04-24T15:11:46;10.30;24.80
20574;DHT22;10445;50.216;7.912;2023-04-24T15:14:37;11.10;19.20
20574;DHT22;10445;50.216;7.912;2023-04-24T15:17:26;11.90;12.50
20574;DHT22;10445;50.216;7.912;2023-04-24T15:20:15;12.30;11.00
20574;DHT22;10445;50.216;7.912;2023-04-24T15:23:03;12.00;7.80
20574;DHT22;10445;50.216;7.912;2023-04-24T15:25:52;11.50;13.90
20574;DHT22;10445;50.216;7.912;2023-04-24T15:28:41;11.20;15.60
20574;DHT22;10445;50.216;7.912;2023-04-24T15:31:31;11.10;13.80
20574;DHT22;10445;50.216;7.912;2023-04-24T15:34:20;10.90;14.50
20574;DHT22;10445;50.216;7.912;2023-04-24T15:37:09;10.80;16.20
20574;DHT22;10445;50.216;7.912;2023-04-24T15:39:58;10.90;19.50
20574;DHT22;10445;50.216;7.912;2023-04-24T15:42:48;10.90;16.60
20574;DHT22;10445;50.216;7.912;2023-04-24T15:45:36;10.90;18.10
20574;DHT22;10445;50.216;7.912;2023-04-24T15:48:27;10.80;19.10
20574;DHT22;10445;50.216;7.912;2023-04-24T15:51:16;10.70;18.80
20574;DHT22;10445;50.216;7.912;2023-04-24T15:54:05;10.70;19.30
20574;DHT22;10445;50.216;7.912;2023-04-24T15:56:54;10.60;13.70
20574;DHT22;10445;50.216;7.912;2023-04-24T15:59:43;10.40;13.40
20574;DHT22;10445;50.216;7.912;2023-04-24T16:02:33;10.30;13.80
20574;DHT22;10445;50.216;7.912;2023-04-24T16:05:23;10.30;17.20
20574;DHT22;10445;50.216;7.912;2023-04-24T16:08:12;10.20;17.10
20574;DHT22;10445;50.216;7.912;2023-04-24T16:11:01;10.00;18.90
20574;DHT22;10445;50.216;7.912;2023-04-24T16:13:50;9.80;25.20
20574;DHT22;10445;50.216;7.912;2023-04-24T16:16:39;9.70;27.70
20574;DHT22;10445;50.216;7.912;2023-04-24T16:19:28;9.80;25.60
20574;DHT22;10445;50.216;7.912;2023-04-24T16:22:18;10.00;25.00
20574;DHT22;10445;50.216;7.912;2023-04-24T16:25:08;10.20;23.40
20574;DHT22;10445;50.216;7.912;2023-04-24T16:27:57;10.20;21.20
20574;DHT22;10445;50.216;7.912;2023-04-24T16:30:46;10.20;23.80
20574;DHT22;10445;50.216;7.912;2023-04-24T16:33:34;10.20;23.40
20574;DHT22;10445;50.216;7.912;2023-04-24T16:36:23;10.20;24.60
20574;DHT22;10445;50.216;7.912;2023-04-24T16:39:14;10.10;22.00
20574;DHT22;10445;50.216;7.912;2023-04-24T16:42:03;10.10;24.60
20574;DHT22;10445;50.216;7.912;2023-04-24T16:44:52;10.20;20.60
20574;DHT22;10445;50.216;7.912;2023-04-24T16:47:40;10.20;22.00
20574;DHT22;10445;50.216;7.912;2023-04-24T16:50:29;10.20;20.80
20574;DHT22;10445;50.216;7.912;2023-04-24T16:53:18;10.20;18.60
20574;DHT22;10445;50.216;7.912;2023-04-24T16:56:08;10.10;17.40
20574;DHT22;10445;50.216;7.912;2023-04-24T16:58:57;10.00;19.00
20574;DHT22;10445;50.216;7.912;2023-04-24T17:01:46;9.90;21.80
20574;DHT22;10445;50.216;7.912;2023-04-24T17:04:35;10.00;25.10
20574;DHT22;10445;50.216;7.912;2023-04-24T17:07:24;9.90;26.80
20574;DHT22;10445;50.216;7.912;2023-04-24T17:10:13;9.80;26.80
20574;DHT22;10445;50.216;7.912;2023-04-24T17:13:03;9.80;24.80
20574;DHT22;10445;50.216;7.912;2023-04-24T17:15:52;9.80;26.80
20574;DHT22;10445;50.216;7.912;2023-04-24T17:18:40;9.80;30.30
20574;DHT22;10445;50.216;7.912;2023-04-24T17:21:29;9.90;26.10
20574;DHT22;10445;50.216;7.912;2023-04-24T17:24:19;9.90;24.50
20574;DHT22;10445;50.216;7.912;2023-04-24T17:27:08;9.90;22.50
20574;DHT22;10445;50.216;7.912;2023-04-24T17:30:03;9.80;21.00
20574;DHT22;10445;50.216;7.912;2023-04-24T17:32:52;9.90;19.70
20574;DHT22;10445;50.216;7.912;2023-04-24T17:35:41;9.90;18.40
20574;DHT22;10445;50.216;7.912;2023-04-24T17:38:30;9.80;16.60
20574;DHT22;10445;50.216;7.912;2023-04-24T17:41:18;9.70;16.00
20574;DHT22;10445;50.216;7.912;2023-04-24T17:44:07;9.70;16.40
20574;DHT22;10445;50.216;7.912;2023-04-24T17:46:58;9.60;19.40
20574;DHT22;10445;50.216;7.912;2023-04-24T17:49:46;9.50;21.80
20574;DHT22;10445;50.216;7.912;2023-04-24T17:52:35;9.30;28.80
20574;DHT22;10445;50.216;7.912;2023-04-24T17:55:24;9.10;35.80
20574;DHT22;10445;50.216;7.912;2023-04-24T17:58:13;9.00;42.90
20574;DHT22;10445;50.216;7.912;2023-04-24T18:01:02;8.70;47.40
20574;DHT22;10445;50.216;7.912;2023-04-24T18:03:52;8.60;60.20
20574;DHT22;10445;50.216;7.912;2023-04-24T18:06:41;8.40;74.10
20574;DHT22;10445;50.216;7.912;2023-04-24T18:09:30;8.20;88.20
20574;DHT22;10445;50.216;7.912;2023-04-24T18:12:19;8.00;92.90
20574;DHT22;10445;50.216;7.912;2023-04-24T18:15:09;7.80;96.60